createdAt,value
2018-06-27T00:00:20.917Z,61.06
2018-06-27T00:00:46.473Z,61.28
2018-06-27T00:01:12.029Z,61.28
2018-06-27T00:01:37.593Z,61.28
2018-06-27T00:02:03.200Z,61.28
2018-06-27T00:02:28.789Z,61.47
2018-06-27T00:02:54.353Z,61.54
2018-06-27T00:03:19.904Z,61.38
2018-06-27T00:03:45.462Z,61.09
2018-06-27T00:04:11.031Z,60.99
2018-06-27T00:04:36.641Z,61.19
2018-06-27T00:05:02.201Z,60.89
2018-06-27T00:05:27.782Z,60.8
2018-06-27T00:05:53.343Z,60.71
2018-06-27T00:06:18.905Z,60.8
2018-06-27T00:06:44.502Z,60.68
2018-06-27T00:07:10.080Z,60.89
2018-06-27T00:07:35.643Z,60.61
2018-06-27T00:08:01.208Z,60.71
2018-06-27T00:08:26.811Z,60.8
2018-06-27T00:08:52.363Z,60.71
2018-06-27T00:09:17.939Z,60.8
2018-06-27T00:09:43.502Z,60.71
2018-06-27T00:10:09.080Z,61.09
2018-06-27T00:10:34.658Z,61.09
2018-06-27T00:11:00.231Z,61.09
2018-06-27T00:11:25.806Z,60.99
2018-06-27T00:11:51.356Z,61.09
2018-06-27T00:12:16.920Z,61.09
2018-06-27T00:12:42.493Z,60.96
2018-06-27T00:13:08.085Z,60.99
2018-06-27T00:13:33.677Z,60.99
2018-06-27T00:13:59.230Z,60.99
2018-06-27T00:14:24.790Z,60.96
2018-06-27T00:14:50.384Z,61.09
2018-06-27T00:15:15.969Z,60.71
2018-06-27T00:15:41.553Z,60.71
2018-06-27T00:16:07.118Z,60.99
2018-06-27T00:16:32.702Z,60.68
2018-06-27T00:16:58.251Z,60.99
2018-06-27T00:17:23.839Z,60.8
2018-06-27T00:17:49.407Z,60.68
2018-06-27T00:18:14.964Z,60.89
2018-06-27T00:18:40.527Z,61.09
2018-06-27T00:19:06.081Z,60.99
2018-06-27T00:19:31.660Z,60.99
2018-06-27T00:19:57.239Z,60.8
2018-06-27T00:20:22.815Z,60.68
2018-06-27T00:20:48.383Z,60.41
2018-06-27T00:21:13.969Z,60.51
2018-06-27T00:21:39.562Z,60.51
2018-06-27T00:22:05.120Z,60.58
2018-06-27T00:22:30.714Z,60.61
2018-06-27T00:22:56.294Z,60.41
2018-06-27T00:23:21.866Z,60.41
2018-06-27T00:23:47.428Z,60.51
2018-06-27T00:24:12.995Z,60.38
2018-06-27T00:24:38.568Z,60.31
2018-06-27T00:25:04.136Z,60.38
2018-06-27T00:25:29.694Z,60.28
2018-06-27T00:25:55.272Z,60.41
2018-06-27T00:26:20.827Z,60.19
2018-06-27T00:26:46.391Z,60.48
2018-06-27T00:27:11.966Z,60.51
2018-06-27T00:27:37.535Z,60.51
2018-06-27T00:28:03.092Z,60.38
2018-06-27T00:28:28.672Z,60.61
2018-06-27T00:28:54.238Z,60.58
2018-06-27T00:29:19.811Z,60.48
2018-06-27T00:29:45.380Z,60.61
2018-06-27T00:30:10.964Z,60.68
2018-06-27T00:30:36.620Z,60.58
2018-06-27T00:31:02.199Z,60.68
2018-06-27T00:31:27.748Z,60.58
2018-06-27T00:31:53.299Z,60.58
2018-06-27T00:32:18.857Z,60.68
2018-06-27T00:32:44.422Z,60.61
2018-06-27T00:33:09.970Z,60.61
2018-06-27T00:33:35.555Z,60.51
2018-06-27T00:34:01.110Z,60.77
2018-06-27T00:34:26.704Z,60.8
2018-06-27T00:34:52.305Z,60
2018-06-27T00:35:17.868Z,60.19
2018-06-27T00:35:43.445Z,60.1
2018-06-27T00:36:09.031Z,60.68
2018-06-27T00:36:35.122Z,60.28
2018-06-27T00:37:00.684Z,60
2018-06-27T00:37:26.266Z,60
2018-06-27T00:37:51.833Z,59.93
2018-06-27T00:38:17.419Z,59.83
2018-06-27T00:38:43.004Z,60.13
2018-06-27T00:39:08.582Z,60.03
2018-06-27T00:39:34.152Z,60.03
2018-06-27T00:39:59.724Z,60.22
2018-06-27T00:40:25.300Z,60.28
2018-06-27T00:40:50.903Z,59.8
2018-06-27T00:41:16.477Z,60.19
2018-06-27T00:41:42.036Z,59.71
2018-06-27T00:42:07.597Z,60.38
2018-06-27T00:42:33.196Z,60.19
2018-06-27T00:42:58.764Z,60.19
2018-06-27T00:43:24.372Z,60.41
2018-06-27T00:43:49.942Z,60.31
2018-06-27T00:44:15.505Z,59.8
2018-06-27T00:44:41.105Z,59.61
2018-06-27T00:45:06.674Z,59.64
2018-06-27T00:45:32.229Z,59.8
2018-06-27T00:45:57.804Z,59.9
2018-06-27T00:46:23.376Z,59.83
2018-06-27T00:46:48.976Z,59.8
2018-06-27T00:47:14.532Z,60.13
2018-06-27T00:47:40.110Z,59.9
2018-06-27T00:48:05.662Z,59.9
2018-06-27T00:48:31.254Z,59.9
2018-06-27T00:48:56.837Z,59.64
2018-06-27T00:49:22.410Z,59.61
2018-06-27T00:49:47.981Z,59.52
2018-06-27T00:50:13.549Z,59.74
2018-06-27T00:50:39.105Z,59.8
2018-06-27T00:51:04.670Z,59.8
2018-06-27T00:51:30.257Z,60.03
2018-06-27T00:51:55.788Z,59.74
2018-06-27T00:52:21.352Z,59.52
2018-06-27T00:52:46.926Z,59.9
2018-06-27T00:53:12.486Z,59.93
2018-06-27T00:53:38.078Z,59.71
2018-06-27T00:54:03.660Z,59.8
2018-06-27T00:54:29.220Z,59.61
2018-06-27T00:54:54.787Z,59.45
2018-06-27T00:55:20.352Z,59.71
2018-06-27T00:55:45.921Z,59.42
2018-06-27T00:56:11.480Z,59.8
2018-06-27T00:56:37.045Z,59.42
2018-06-27T00:57:02.660Z,59.35
2018-06-27T00:57:28.224Z,59.71
2018-06-27T00:57:53.784Z,59.52
2018-06-27T00:58:19.348Z,59.52
2018-06-27T00:58:44.918Z,59.45
2018-06-27T00:59:10.499Z,59.64
2018-06-27T00:59:36.091Z,59.61
2018-06-27T01:00:01.666Z,59.61
2018-06-27T01:00:27.223Z,59.42
2018-06-27T01:00:52.801Z,59.42
2018-06-27T01:01:18.394Z,59.42
2018-06-27T01:01:43.946Z,59.55
2018-06-27T01:02:09.537Z,59.32
2018-06-27T01:02:35.099Z,59.42
2018-06-27T01:03:00.696Z,59.32
2018-06-27T01:03:26.246Z,59.35
2018-06-27T01:03:51.812Z,59.64
2018-06-27T01:04:17.376Z,59.45
2018-06-27T01:04:42.936Z,59.45
2018-06-27T01:05:08.497Z,59.61
2018-06-27T01:05:34.058Z,59.64
2018-06-27T01:05:59.616Z,59.61
2018-06-27T01:06:25.188Z,59.64
2018-06-27T01:06:50.737Z,59.64
2018-06-27T01:07:16.352Z,59.71
2018-06-27T01:07:41.932Z,59.45
2018-06-27T01:08:07.497Z,59.42
2018-06-27T01:08:33.071Z,59.8
2018-06-27T01:08:58.640Z,59.25
2018-06-27T01:09:24.251Z,58.94
2018-06-27T01:09:49.811Z,59.23
2018-06-27T01:10:15.365Z,58.94
2018-06-27T01:10:40.998Z,58.97
2018-06-27T01:11:06.528Z,59.06
2018-06-27T01:11:32.069Z,59.25
2018-06-27T01:11:57.635Z,59.23
2018-06-27T01:12:23.199Z,58.94
2018-06-27T01:12:48.784Z,59.13
2018-06-27T01:13:14.354Z,59.25
2018-06-27T01:13:39.920Z,59.13
2018-06-27T01:14:05.484Z,59.06
2018-06-27T01:14:31.075Z,59.03
2018-06-27T01:14:56.657Z,59.16
2018-06-27T01:15:22.235Z,59.25
2018-06-27T01:15:47.798Z,59.23
2018-06-27T01:16:13.360Z,59.23
2018-06-27T01:16:38.921Z,59.13
2018-06-27T01:17:04.483Z,59.32
2018-06-27T01:17:30.076Z,59.42
2018-06-27T01:17:55.620Z,59.35
2018-06-27T01:18:21.192Z,59.42
2018-06-27T01:18:46.771Z,58.97
2018-06-27T01:19:12.357Z,59.42
2018-06-27T01:19:37.919Z,59.35
2018-06-27T01:20:03.543Z,59.35
2018-06-27T01:20:29.055Z,59.23
2018-06-27T01:20:54.641Z,59.16
2018-06-27T01:21:20.213Z,59.32
2018-06-27T01:21:45.778Z,59.23
2018-06-27T01:22:11.342Z,59.23
2018-06-27T01:22:36.909Z,59.03
2018-06-27T01:23:02.495Z,58.97
2018-06-27T01:23:28.121Z,59.16
2018-06-27T01:23:53.695Z,58.87
2018-06-27T01:24:19.251Z,58.77
2018-06-27T01:24:44.813Z,58.68
2018-06-27T01:25:10.393Z,58.55
2018-06-27T01:25:35.967Z,58.97
2018-06-27T01:26:01.547Z,58.94
2018-06-27T01:26:27.111Z,58.94
2018-06-27T01:26:52.674Z,58.84
2018-06-27T01:27:18.233Z,58.68
2018-06-27T01:27:43.798Z,58.94
2018-06-27T01:28:09.359Z,58.94
2018-06-27T01:28:34.937Z,58.75
2018-06-27T01:29:00.489Z,58.84
2018-06-27T01:29:26.041Z,58.77
2018-06-27T01:29:51.603Z,58.84
2018-06-27T01:30:17.187Z,58.84
2018-06-27T01:30:42.745Z,58.75
2018-06-27T01:31:08.299Z,58.75
2018-06-27T01:31:33.865Z,58.84
2018-06-27T01:31:59.458Z,58.65
2018-06-27T01:32:25.035Z,58.77
2018-06-27T01:32:50.585Z,58.94
2018-06-27T01:33:16.151Z,58.75
2018-06-27T01:33:41.729Z,58.45
2018-06-27T01:34:07.298Z,58.68
2018-06-27T01:34:32.868Z,58.48
2018-06-27T01:34:58.409Z,58.55
2018-06-27T01:35:23.978Z,58.26
2018-06-27T01:35:49.554Z,58.36
2018-06-27T01:36:15.118Z,58.45
2018-06-27T01:36:40.713Z,58.55
2018-06-27T01:37:06.280Z,58.55
2018-06-27T01:37:31.829Z,58.36
2018-06-27T01:37:57.394Z,58.55
2018-06-27T01:38:22.978Z,58.55
2018-06-27T01:38:48.540Z,58.65
2018-06-27T01:39:14.126Z,58.55
2018-06-27T01:39:39.684Z,58.68
2018-06-27T01:40:05.247Z,58.77
2018-06-27T01:40:30.801Z,58.58
2018-06-27T01:40:56.431Z,58.58
2018-06-27T01:41:22.020Z,58.65
2018-06-27T01:41:47.609Z,58.45
2018-06-27T01:42:13.182Z,58.55
2018-06-27T01:42:38.747Z,58.36
2018-06-27T01:43:04.321Z,58.39
2018-06-27T01:43:29.911Z,58.68
2018-06-27T01:43:55.457Z,58.39
2018-06-27T01:44:21.037Z,58.55
2018-06-27T01:44:46.608Z,58.87
2018-06-27T01:45:12.202Z,58.58
2018-06-27T01:45:37.775Z,58.39
2018-06-27T01:46:03.341Z,58.39
2018-06-27T01:46:28.892Z,58.55
2018-06-27T01:46:54.443Z,58.39
2018-06-27T01:47:19.995Z,58.58
2018-06-27T01:47:45.569Z,58.45
2018-06-27T01:48:11.130Z,58.55
2018-06-27T01:48:36.777Z,58.84
2018-06-27T01:49:02.261Z,58.45
2018-06-27T01:49:27.825Z,58.39
2018-06-27T01:49:53.391Z,58.77
2018-06-27T01:50:19.029Z,58.55
2018-06-27T01:50:44.595Z,58.45
2018-06-27T01:51:10.163Z,59.06
2018-06-27T01:51:35.747Z,58.87
2018-06-27T01:52:01.316Z,58.75
2018-06-27T01:52:26.882Z,58.94
2018-06-27T01:52:52.462Z,58.68
2018-06-27T01:53:18.017Z,58.75
2018-06-27T01:53:43.585Z,58.68
2018-06-27T01:54:09.135Z,59.13
2018-06-27T01:54:34.697Z,58.48
2018-06-27T01:55:00.273Z,58.94
2018-06-27T01:55:25.831Z,58.77
2018-06-27T01:55:51.395Z,58.84
2018-06-27T01:56:16.971Z,58.36
2018-06-27T01:56:42.553Z,59.13
2018-06-27T01:57:08.112Z,58.55
2018-06-27T01:57:33.703Z,58.45
2018-06-27T01:57:59.267Z,59.06
2018-06-27T01:58:24.862Z,58.58
2018-06-27T01:58:50.462Z,58.48
2018-06-27T01:59:15.995Z,58.55
2018-06-27T01:59:41.561Z,58.58
2018-06-27T02:00:07.126Z,58.84
2018-06-27T02:00:32.677Z,58.65
2018-06-27T02:00:58.275Z,58.36
2018-06-27T02:01:23.832Z,58.29
2018-06-27T02:01:49.395Z,58.39
2018-06-27T02:02:14.957Z,58.36
2018-06-27T02:02:40.521Z,58.26
2018-06-27T02:03:06.087Z,58.84
2018-06-27T02:03:31.661Z,58.84
2018-06-27T02:03:57.225Z,58.87
2018-06-27T02:04:22.804Z,58.75
2018-06-27T02:04:48.350Z,58.65
2018-06-27T02:05:13.921Z,58.77
2018-06-27T02:05:39.501Z,58.84
2018-06-27T02:06:05.058Z,58.68
2018-06-27T02:06:30.629Z,58.65
2018-06-27T02:06:56.205Z,58.65
2018-06-27T02:07:21.758Z,58.77
2018-06-27T02:07:47.319Z,58.75
2018-06-27T02:08:12.892Z,58.75
2018-06-27T02:08:38.441Z,58.77
2018-06-27T02:09:04.008Z,58.65
2018-06-27T02:09:29.580Z,58.65
2018-06-27T02:09:55.169Z,58.87
2018-06-27T02:10:20.755Z,58.75
2018-06-27T02:10:46.312Z,58.75
2018-06-27T02:11:11.894Z,58.65
2018-06-27T02:11:37.492Z,58.55
2018-06-27T02:12:03.077Z,58.84
2018-06-27T02:12:28.687Z,58.55
2018-06-27T02:12:54.267Z,58.84
2018-06-27T02:13:19.811Z,58.75
2018-06-27T02:13:45.424Z,58.84
2018-06-27T02:14:10.999Z,58.36
2018-06-27T02:14:36.585Z,58.84
2018-06-27T02:15:02.148Z,58.84
2018-06-27T02:15:27.685Z,58.65
2018-06-27T02:15:53.262Z,58.17
2018-06-27T02:16:18.829Z,58.19
2018-06-27T02:16:44.391Z,58.17
2018-06-27T02:17:09.962Z,58.77
2018-06-27T02:17:35.532Z,58.26
2018-06-27T02:18:01.110Z,58.26
2018-06-27T02:18:26.670Z,58.36
2018-06-27T02:18:52.282Z,58.26
2018-06-27T02:19:17.851Z,58.26
2018-06-27T02:19:43.420Z,58.29
2018-06-27T02:20:08.991Z,58.29
2018-06-27T02:20:34.558Z,58.17
2018-06-27T02:21:00.119Z,58.26
2018-06-27T02:21:25.725Z,57.97
2018-06-27T02:21:51.296Z,58.36
2018-06-27T02:22:16.883Z,58.36
2018-06-27T02:22:42.456Z,58.36
2018-06-27T02:23:08.014Z,58.17
2018-06-27T02:23:33.614Z,58
2018-06-27T02:23:59.159Z,57.97
2018-06-27T02:24:24.710Z,58
2018-06-27T02:24:50.305Z,57.81
2018-06-27T02:25:15.860Z,57.87
2018-06-27T02:25:41.444Z,57.97
2018-06-27T02:26:07.024Z,58.17
2018-06-27T02:26:32.591Z,58.17
2018-06-27T02:26:58.195Z,57.87
2018-06-27T02:27:23.814Z,58.36
2018-06-27T02:27:49.363Z,58.36
2018-06-27T02:28:14.945Z,58.17
2018-06-27T02:28:40.530Z,58.17
2018-06-27T02:29:06.084Z,58.17
2018-06-27T02:29:31.680Z,58.17
2018-06-27T02:29:57.264Z,58.36
2018-06-27T02:30:22.819Z,58.07
2018-06-27T02:30:48.365Z,58.07
2018-06-27T02:31:13.939Z,58.07
2018-06-27T02:31:39.500Z,58.07
2018-06-27T02:32:05.071Z,57.97
2018-06-27T02:32:30.626Z,58
2018-06-27T02:32:56.192Z,57.78
2018-06-27T02:33:21.787Z,57.87
2018-06-27T02:33:47.460Z,57.97
2018-06-27T02:34:13.039Z,57.87
2018-06-27T02:34:38.606Z,57.87
2018-06-27T02:35:04.179Z,57.97
2018-06-27T02:35:29.719Z,58.07
2018-06-27T02:35:55.288Z,58.17
2018-06-27T02:36:20.867Z,58.17
2018-06-27T02:36:46.455Z,58.07
2018-06-27T02:37:12.016Z,57.97
2018-06-27T02:37:37.674Z,58.07
2018-06-27T02:38:03.263Z,57.87
2018-06-27T02:38:28.869Z,57.87
2018-06-27T02:38:54.492Z,57.78
2018-06-27T02:39:20.019Z,57.59
2018-06-27T02:39:45.582Z,57.87
2018-06-27T02:40:11.150Z,58.07
2018-06-27T02:40:36.713Z,57.78
2018-06-27T02:41:02.280Z,57.68
2018-06-27T02:41:27.866Z,57.78
2018-06-27T02:41:53.428Z,57.68
2018-06-27T02:42:19.014Z,57.78
2018-06-27T02:42:44.590Z,57.49
2018-06-27T02:43:10.161Z,57.62
2018-06-27T02:43:35.754Z,57.59
2018-06-27T02:44:01.369Z,57.59
2018-06-27T02:44:26.936Z,57.68
2018-06-27T02:44:52.509Z,57.9
2018-06-27T02:45:18.087Z,57.87
2018-06-27T02:45:43.651Z,57.97
2018-06-27T02:46:09.226Z,57.9
2018-06-27T02:46:34.788Z,57.87
2018-06-27T02:47:00.364Z,57.97
2018-06-27T02:47:25.918Z,57.97
2018-06-27T02:47:51.484Z,57.87
2018-06-27T02:48:17.049Z,57.78
2018-06-27T02:48:42.608Z,57.87
2018-06-27T02:49:08.170Z,57.87
2018-06-27T02:49:33.744Z,57.87
2018-06-27T02:49:59.328Z,57.78
2018-06-27T02:50:24.890Z,57.87
2018-06-27T02:50:50.512Z,57.68
2018-06-27T02:51:16.067Z,58.07
2018-06-27T02:51:41.627Z,57.97
2018-06-27T02:52:07.193Z,57.59
2018-06-27T02:52:32.879Z,57.78
2018-06-27T02:52:58.350Z,58.17
2018-06-27T02:53:23.934Z,57.59
2018-06-27T02:53:49.484Z,57.49
2018-06-27T02:54:15.080Z,57.68
2018-06-27T02:54:40.644Z,58.07
2018-06-27T02:55:06.212Z,57.59
2018-06-27T02:55:31.805Z,57.68
2018-06-27T02:55:57.376Z,57.59
2018-06-27T02:56:22.936Z,57.49
2018-06-27T02:56:48.529Z,57.49
2018-06-27T02:57:14.098Z,57.49
2018-06-27T02:57:39.654Z,57.62
2018-06-27T02:58:05.216Z,57.59
2018-06-27T02:58:30.778Z,57.59
2018-06-27T02:58:56.360Z,57.39
2018-06-27T02:59:21.929Z,57.78
2018-06-27T02:59:47.496Z,57.68
2018-06-27T03:00:13.073Z,57.49
2018-06-27T03:00:38.620Z,57.49
2018-06-27T03:01:04.194Z,57.39
2018-06-27T03:01:29.741Z,57.59
2018-06-27T03:01:55.313Z,57.68
2018-06-27T03:02:20.933Z,57.68
2018-06-27T03:02:46.424Z,57.59
2018-06-27T03:03:12.001Z,57.68
2018-06-27T03:03:37.554Z,57.68
2018-06-27T03:04:03.106Z,57.68
2018-06-27T03:04:28.703Z,57.68
2018-06-27T03:04:54.209Z,57.68
2018-06-27T03:05:19.791Z,57.68
2018-06-27T03:05:45.368Z,57.68
2018-06-27T03:06:10.942Z,57.59
2018-06-27T03:06:36.502Z,57.39
2018-06-27T03:07:02.065Z,57.39
2018-06-27T03:07:27.641Z,57.49
2018-06-27T03:07:53.187Z,57.68
2018-06-27T03:08:18.752Z,57.78
2018-06-27T03:08:44.310Z,57.68
2018-06-27T03:09:09.906Z,57.68
2018-06-27T03:09:35.464Z,57.78
2018-06-27T03:10:01.020Z,57.78
2018-06-27T03:10:26.602Z,57.68
2018-06-27T03:10:52.160Z,57.68
2018-06-27T03:11:17.711Z,57.78
2018-06-27T03:11:43.294Z,57.68
2018-06-27T03:12:08.854Z,57.68
2018-06-27T03:12:34.412Z,57.68
2018-06-27T03:13:00.000Z,57.39
2018-06-27T03:13:25.548Z,57.59
2018-06-27T03:13:51.132Z,57.59
2018-06-27T03:14:16.694Z,57.29
2018-06-27T03:14:42.331Z,57.39
2018-06-27T03:15:07.969Z,57.2
2018-06-27T03:15:33.479Z,57.39
2018-06-27T03:15:59.040Z,57.39
2018-06-27T03:16:24.579Z,57.2
2018-06-27T03:16:50.144Z,57.2
2018-06-27T03:17:15.718Z,57.2
2018-06-27T03:17:41.281Z,56.91
2018-06-27T03:18:06.869Z,57.1
2018-06-27T03:18:32.448Z,57.01
2018-06-27T03:18:58.016Z,56.91
2018-06-27T03:19:23.570Z,57.1
2018-06-27T03:19:49.150Z,57.1
2018-06-27T03:20:14.769Z,57.29
2018-06-27T03:20:40.276Z,56.81
2018-06-27T03:21:05.851Z,57.1
2018-06-27T03:21:31.399Z,57.1
2018-06-27T03:21:56.987Z,57.1
2018-06-27T03:22:22.544Z,57.1
2018-06-27T03:22:48.091Z,57.2
2018-06-27T03:23:13.662Z,57.1
2018-06-27T03:23:39.243Z,57.2
2018-06-27T03:24:04.823Z,57.2
2018-06-27T03:24:30.430Z,57.1
2018-06-27T03:24:56.024Z,57.2
2018-06-27T03:25:21.619Z,57.01
2018-06-27T03:25:47.180Z,57.1
2018-06-27T03:26:12.740Z,57.01
2018-06-27T03:26:38.278Z,57.1
2018-06-27T03:27:03.844Z,56.91
2018-06-27T03:27:29.411Z,57.1
2018-06-27T03:27:54.986Z,56.91
2018-06-27T03:28:20.552Z,56.91
2018-06-27T03:28:46.136Z,57.01
2018-06-27T03:29:11.710Z,57.29
2018-06-27T03:29:37.280Z,57.29
2018-06-27T03:30:02.868Z,57.29
2018-06-27T03:30:28.436Z,57.29
2018-06-27T03:30:53.994Z,57.29
2018-06-27T03:31:19.595Z,57.29
2018-06-27T03:31:45.174Z,57.29
2018-06-27T03:32:10.740Z,57.29
2018-06-27T03:32:36.309Z,57.01
2018-06-27T03:33:01.866Z,57.29
2018-06-27T03:33:27.456Z,57.01
2018-06-27T03:33:53.024Z,57.29
2018-06-27T03:34:18.589Z,57.29
2018-06-27T03:34:44.156Z,57.1
2018-06-27T03:35:09.730Z,57.29
2018-06-27T03:35:35.324Z,57.29
2018-06-27T03:36:00.859Z,57.29
2018-06-27T03:36:26.436Z,57.2
2018-06-27T03:36:51.992Z,57.29
2018-06-27T03:37:17.553Z,57.29
2018-06-27T03:37:43.102Z,57.29
2018-06-27T03:38:08.701Z,57.29
2018-06-27T03:38:34.275Z,57.29
2018-06-27T03:38:59.845Z,57.29
2018-06-27T03:39:25.440Z,57.39
2018-06-27T03:39:50.970Z,57.1
2018-06-27T03:40:16.551Z,57.29
2018-06-27T03:40:42.112Z,57.1
2018-06-27T03:41:07.711Z,57.49
2018-06-27T03:41:33.300Z,57.49
2018-06-27T03:41:58.877Z,57.1
2018-06-27T03:42:24.476Z,57.2
2018-06-27T03:42:50.051Z,57.1
2018-06-27T03:43:15.592Z,57.1
2018-06-27T03:43:41.169Z,57.01
2018-06-27T03:44:06.809Z,57.2
2018-06-27T03:44:32.345Z,57.2
2018-06-27T03:44:57.898Z,57.2
2018-06-27T03:45:23.480Z,57.2
2018-06-27T03:45:49.050Z,57.2
2018-06-27T03:46:14.616Z,57.2
2018-06-27T03:46:40.192Z,57.1
2018-06-27T03:47:05.759Z,57.39
2018-06-27T03:47:31.322Z,57.1
2018-06-27T03:47:56.897Z,57.2
2018-06-27T03:48:22.462Z,57.1
2018-06-27T03:48:48.037Z,57.29
2018-06-27T03:49:13.618Z,57.29
2018-06-27T03:49:39.175Z,57.2
2018-06-27T03:50:04.736Z,57.2
2018-06-27T03:50:30.290Z,57.2
2018-06-27T03:50:55.859Z,57.2
2018-06-27T03:51:21.418Z,57.1
2018-06-27T03:51:46.976Z,57.2
2018-06-27T03:52:12.552Z,57.1
2018-06-27T03:52:38.110Z,57.1
2018-06-27T03:53:03.688Z,57.2
2018-06-27T03:53:29.282Z,57.1
2018-06-27T03:53:54.854Z,57.29
2018-06-27T03:54:20.444Z,57.1
2018-06-27T03:54:46.022Z,57.2
2018-06-27T03:55:11.589Z,57.2
2018-06-27T03:55:37.184Z,56.91
2018-06-27T03:56:02.740Z,56.72
2018-06-27T03:56:28.307Z,56.33
2018-06-27T03:56:53.883Z,57.1
2018-06-27T03:57:19.441Z,57.1
2018-06-27T03:57:45.010Z,56.91
2018-06-27T03:58:10.620Z,57.01
2018-06-27T03:58:36.156Z,56.91
2018-06-27T03:59:01.799Z,56.72
2018-06-27T03:59:27.309Z,57.01
2018-06-27T03:59:52.889Z,57.2
2018-06-27T04:00:18.482Z,57.2
2018-06-27T04:00:44.083Z,57.29
2018-06-27T04:01:09.654Z,57.29
2018-06-27T04:01:35.212Z,57.2
2018-06-27T04:02:00.839Z,57.49
2018-06-27T04:02:26.400Z,57.2
2018-06-27T04:02:51.984Z,57.2
2018-06-27T04:03:17.563Z,57.1
2018-06-27T04:03:43.134Z,57.01
2018-06-27T04:04:08.683Z,57.2
2018-06-27T04:04:34.241Z,57.29
2018-06-27T04:04:59.807Z,57.01
2018-06-27T04:05:25.399Z,57.29
2018-06-27T04:05:51.027Z,57.29
2018-06-27T04:06:16.579Z,57.1
2018-06-27T04:06:42.176Z,57.01
2018-06-27T04:07:07.724Z,57.1
2018-06-27T04:07:33.292Z,57.01
2018-06-27T04:07:58.858Z,57.01
2018-06-27T04:08:24.490Z,57.01
2018-06-27T04:08:50.046Z,57.01
2018-06-27T04:09:15.623Z,57.1
2018-06-27T04:09:41.188Z,57.01
2018-06-27T04:10:06.776Z,56.91
2018-06-27T04:10:32.351Z,56.91
2018-06-27T04:10:57.945Z,56.91
2018-06-27T04:11:23.498Z,57.1
2018-06-27T04:11:49.074Z,57.1
2018-06-27T04:12:14.647Z,57.1
2018-06-27T04:12:40.302Z,57.1
2018-06-27T04:13:06.034Z,57.01
2018-06-27T04:13:31.457Z,56.91
2018-06-27T04:13:56.923Z,57.2
2018-06-27T04:14:22.511Z,57.01
2018-06-27T04:14:48.074Z,57.1
2018-06-27T04:15:13.650Z,57.1
2018-06-27T04:15:39.221Z,57.1
2018-06-27T04:16:04.780Z,57.1
2018-06-27T04:16:30.365Z,57.1
2018-06-27T04:16:55.943Z,57.1
2018-06-27T04:17:21.523Z,57.01
2018-06-27T04:17:47.092Z,57.2
2018-06-27T04:18:12.658Z,57.2
2018-06-27T04:18:38.227Z,57.49
2018-06-27T04:19:03.816Z,57.01
2018-06-27T04:19:29.393Z,57.2
2018-06-27T04:19:54.967Z,56.72
2018-06-27T04:20:20.539Z,57.1
2018-06-27T04:20:46.102Z,57.1
2018-06-27T04:21:11.667Z,57.29
2018-06-27T04:21:37.229Z,57.2
2018-06-27T04:22:02.788Z,57.2
2018-06-27T04:22:28.388Z,57.2
2018-06-27T04:22:53.983Z,57.2
2018-06-27T04:23:19.577Z,57.2
2018-06-27T04:23:45.159Z,57.1
2018-06-27T04:24:10.776Z,57.1
2018-06-27T04:24:36.361Z,57.1
2018-06-27T04:25:01.936Z,57.1
2018-06-27T04:25:27.508Z,56.81
2018-06-27T04:25:53.041Z,57.1
2018-06-27T04:26:18.605Z,57.2
2018-06-27T04:26:44.174Z,56.91
2018-06-27T04:27:09.792Z,57.29
2018-06-27T04:27:35.333Z,57.2
2018-06-27T04:28:00.882Z,57.01
2018-06-27T04:28:26.483Z,57.29
2018-06-27T04:28:52.059Z,56.91
2018-06-27T04:29:17.684Z,57.2
2018-06-27T04:29:43.268Z,57.2
2018-06-27T04:30:08.833Z,57.01
2018-06-27T04:30:34.426Z,57.1
2018-06-27T04:30:59.983Z,57.29
2018-06-27T04:31:25.560Z,57.1
2018-06-27T04:31:51.148Z,57.2
2018-06-27T04:32:16.718Z,57.29
2018-06-27T04:32:42.315Z,57.59
2018-06-27T04:33:07.857Z,57.78
2018-06-27T04:33:33.427Z,57.87
2018-06-27T04:33:59.024Z,57.59
2018-06-27T04:34:24.568Z,57.49
2018-06-27T04:34:50.145Z,57.59
2018-06-27T04:35:15.738Z,57.87
2018-06-27T04:35:41.302Z,57.87
2018-06-27T04:36:06.896Z,57.49
2018-06-27T04:36:32.430Z,57.68
2018-06-27T04:36:58.023Z,57.87
2018-06-27T04:37:23.599Z,57.87
2018-06-27T04:37:49.164Z,57.78
2018-06-27T04:38:14.739Z,57.87
2018-06-27T04:38:40.294Z,57.68
2018-06-27T04:39:05.877Z,57.78
2018-06-27T04:39:31.448Z,57.87
2018-06-27T04:39:57.021Z,57.29
2018-06-27T04:40:22.600Z,57.78
2018-06-27T04:40:48.162Z,57.59
2018-06-27T04:41:13.727Z,57.78
2018-06-27T04:41:39.292Z,57.49
2018-06-27T04:42:04.847Z,57.59
2018-06-27T04:42:30.427Z,57.2
2018-06-27T04:42:55.976Z,57.49
2018-06-27T04:43:21.556Z,57.49
2018-06-27T04:43:47.142Z,57.59
2018-06-27T04:44:12.721Z,57.49
2018-06-27T04:44:38.359Z,57.59
2018-06-27T04:45:03.944Z,57.97
2018-06-27T04:45:29.525Z,58.07
2018-06-27T04:45:55.140Z,57.87
2018-06-27T04:46:20.738Z,57.68
2018-06-27T04:46:46.302Z,57.87
2018-06-27T04:47:11.870Z,57.87
2018-06-27T04:47:37.457Z,57.68
2018-06-27T04:48:03.029Z,57.87
2018-06-27T04:48:28.602Z,57.78
2018-06-27T04:48:54.126Z,57.87
2018-06-27T04:49:19.744Z,57.78
2018-06-27T04:49:45.338Z,57.78
2018-06-27T04:50:10.967Z,57.87
2018-06-27T04:50:36.513Z,57.87
2018-06-27T04:51:02.111Z,57.78
2018-06-27T04:51:27.690Z,57.87
2018-06-27T04:51:53.251Z,57.59
2018-06-27T04:52:18.829Z,57.59
2018-06-27T04:52:44.415Z,57.49
2018-06-27T04:53:09.976Z,57.49
2018-06-27T04:53:35.539Z,57.87
2018-06-27T04:54:01.110Z,57.78
2018-06-27T04:54:26.694Z,57.68
2018-06-27T04:54:52.378Z,57.59
2018-06-27T04:55:17.830Z,58.07
2018-06-27T04:55:43.403Z,57.78
2018-06-27T04:56:08.969Z,57.78
2018-06-27T04:56:34.537Z,57.78
2018-06-27T04:57:00.106Z,57.59
2018-06-27T04:57:25.665Z,57.68
2018-06-27T04:57:51.234Z,57.78
2018-06-27T04:58:16.795Z,57.87
2018-06-27T04:58:42.359Z,57.78
2018-06-27T04:59:07.943Z,57.87
2018-06-27T04:59:33.533Z,57.97
2018-06-27T04:59:59.097Z,57.97
2018-06-27T05:00:24.659Z,57.87
2018-06-27T05:00:50.241Z,57.97
2018-06-27T05:01:15.814Z,58.07
2018-06-27T05:01:41.446Z,57.97
2018-06-27T05:02:06.960Z,57.97
2018-06-27T05:02:32.525Z,57.49
2018-06-27T05:02:58.095Z,57.59
2018-06-27T05:03:23.649Z,57.68
2018-06-27T05:03:49.227Z,58.17
2018-06-27T05:04:14.779Z,57.87
2018-06-27T05:04:40.340Z,57.68
2018-06-27T05:05:05.910Z,57.87
2018-06-27T05:05:31.483Z,57.97
2018-06-27T05:05:57.045Z,58.36
2018-06-27T05:06:22.602Z,58.29
2018-06-27T05:06:48.188Z,58.75
2018-06-27T05:07:13.737Z,58.55
2018-06-27T05:07:39.319Z,58.07
2018-06-27T05:08:04.989Z,58.26
2018-06-27T05:08:30.547Z,58.65
2018-06-27T05:08:56.142Z,58.36
2018-06-27T05:09:21.723Z,59.13
2018-06-27T05:09:47.347Z,59.13
2018-06-27T05:10:12.947Z,58.65
2018-06-27T05:10:38.524Z,58.84
2018-06-27T05:11:04.082Z,58.75
2018-06-27T05:11:29.681Z,58.45
2018-06-27T05:11:55.255Z,58.45
2018-06-27T05:12:20.823Z,58.55
2018-06-27T05:12:46.372Z,58.65
2018-06-27T05:13:11.943Z,58.36
2018-06-27T05:13:37.523Z,58.36
2018-06-27T05:14:03.105Z,58.45
2018-06-27T05:14:28.663Z,58.65
2018-06-27T05:14:54.233Z,58.36
2018-06-27T05:15:19.797Z,58.45
2018-06-27T05:15:45.369Z,58.48
2018-06-27T05:16:10.982Z,58.45
2018-06-27T05:16:36.520Z,58.45
2018-06-27T05:17:02.097Z,58.36
2018-06-27T05:17:27.686Z,58.29
2018-06-27T05:17:53.290Z,58.36
2018-06-27T05:18:18.877Z,58.26
2018-06-27T05:18:44.441Z,58.45
2018-06-27T05:19:10.001Z,58.84
2018-06-27T05:19:35.605Z,58.55
2018-06-27T05:20:01.224Z,58.94
2018-06-27T05:20:26.837Z,58.75
2018-06-27T05:20:52.402Z,58.75
2018-06-27T05:21:17.966Z,59.13
2018-06-27T05:21:43.557Z,59.13
2018-06-27T05:22:09.174Z,58.94
2018-06-27T05:22:34.739Z,59.13
2018-06-27T05:23:00.340Z,59.03
2018-06-27T05:23:25.896Z,59.13
2018-06-27T05:23:51.465Z,59.13
2018-06-27T05:24:17.019Z,58.84
2018-06-27T05:24:42.614Z,59.71
2018-06-27T05:25:08.219Z,59.32
2018-06-27T05:25:33.820Z,59.42
2018-06-27T05:25:59.389Z,59.61
2018-06-27T05:26:24.970Z,59.42
2018-06-27T05:26:50.530Z,59.42
2018-06-27T05:27:16.105Z,59.8
2018-06-27T05:27:41.834Z,59.61
2018-06-27T05:28:07.262Z,59.61
2018-06-27T05:28:32.831Z,59.52
2018-06-27T05:28:58.410Z,59.32
2018-06-27T05:29:23.978Z,59.52
2018-06-27T05:29:49.539Z,59.52
2018-06-27T05:30:15.127Z,60
2018-06-27T05:30:40.696Z,59.8
2018-06-27T05:31:06.403Z,59.8
2018-06-27T05:31:32.003Z,59.9